sensor_id;sensor_type;location;lat;lon;timestamp;pressure;altitude;pressure_sealevel;temperature;humidity
22283;BME280;11310;51.528;21.204;2023-10-19T00:02:15;99594.50;;;-0.15;100.00
22283;BME280;11310;51.528;21.204;2023-10-19T00:04:46;99586.78;;;-0.16;100.00
22283;BME280;11310;51.528;21.204;2023-10-19T00:07:17;99586.78;;;-0.15;100.00
22283;BME280;11310;51.528;21.204;2023-10-19T00:09:45;99583.31;;;-0.11;100.00
22283;BME280;11310;51.528;21.204;2023-10-19T00:12:15;99577.19;;;-0.04;100.00
22283;BME280;11310;51.528;21.204;2023-10-19T00:14:43;99571.94;;;0.05;100.00
22283;BME280;11310;51.528;21.204;2023-10-19T00:17:10;99577.03;;;0.12;100.00
22283;BME280;11310;51.528;21.204;2023-10-19T00:19:41;99565.06;;;0.06;100.00
22283;BME280;11310;51.528;21.204;2023-10-19T00:22:26;99561.63;;;0.05;100.00
22283;BME280;11310;51.528;21.204;2023-10-19T00:24:58;99559.91;;;0.06;100.00
22283;BME280;11310;51.528;21.204;2023-10-19T00:27:26;99559.94;;;0.01;100.00
22283;BME280;11310;51.528;21.204;2023-10-19T00:29:54;99542.78;;;-0.01;100.00
22283;BME280;11310;51.528;21.204;2023-10-19T00:32:33;99539.38;;;-0.02;100.00
22283;BME280;11310;51.528;21.204;2023-10-19T00:35:06;99540.22;;;-0.01;100.00
22283;BME280;11310;51.528;21.204;2023-10-19T00:37:56;99542.88;;;-0.06;100.00
22283;BME280;11310;51.528;21.204;2023-10-19T00:40:50;99545.47;;;-0.09;100.00
22283;BME280;11310;51.528;21.204;2023-10-19T00:43:28;99535.16;;;-0.10;100.00
22283;BME280;11310;51.528;21.204;2023-10-19T00:46:00;99536.94;;;-0.14;100.00
22283;BME280;11310;51.528;21.204;2023-10-19T00:48:46;99534.38;;;-0.17;100.00
22283;BME280;11310;51.528;21.204;2023-10-19T00:51:18;99539.50;;;-0.14;100.00
22283;BME280;11310;51.528;21.204;2023-10-19T00:54:10;99538.63;;;-0.11;100.00
22283;BME280;11310;51.528;21.204;2023-10-19T00:56:42;99524.84;;;-0.10;100.00
22283;BME280;11310;51.528;21.204;2023-10-19T00:59:17;99524.84;;;-0.09;100.00
22283;BME280;11310;51.528;21.204;2023-10-19T01:01:50;99525.75;;;-0.13;100.00
22283;BME280;11310;51.528;21.204;2023-10-19T01:04:22;99523.25;;;-0.20;100.00
22283;BME280;11310;51.528;21.204;2023-10-19T01:06:52;99524.16;;;-0.23;100.00
22283;BME280;11310;51.528;21.204;2023-10-19T01:09:33;99521.56;;;-0.20;100.00
22283;BME280;11310;51.528;21.204;2023-10-19T01:12:04;99512.94;;;-0.19;100.00
22283;BME280;11310;51.528;21.204;2023-10-19T01:15:04;99511.25;;;-0.21;100.00
22283;BME280;11310;51.528;21.204;2023-10-19T01:17:36;99515.59;;;-0.25;100.00
22283;BME280;11310;51.528;21.204;2023-10-19T01:20:09;99504.44;;;-0.28;100.00
22283;BME280;11310;51.528;21.204;2023-10-19T01:22:51;99502.75;;;-0.31;100.00
22283;BME280;11310;51.528;21.204;2023-10-19T01:25:44;99493.34;;;-0.35;100.00
22283;BME280;11310;51.528;21.204;2023-10-19T01:28:18;99498.56;;;-0.36;100.00
22283;BME280;11310;51.528;21.204;2023-10-19T01:30:52;99498.56;;;-0.38;100.00
22283;BME280;11310;51.528;21.204;2023-10-19T01:33:21;99494.28;;;-0.39;100.00
22283;BME280;11310;51.528;21.204;2023-10-19T01:35:50;99490.84;;;-0.38;100.00
22283;BME280;11310;51.528;21.204;2023-10-19T01:38:38;99490.84;;;-0.38;100.00
22283;BME280;11310;51.528;21.204;2023-10-19T01:41:09;99495.09;;;-0.37;100.00
22283;BME280;11310;51.528;21.204;2023-10-19T01:43:41;99492.53;;;-0.38;100.00
22283;BME280;11310;51.528;21.204;2023-10-19T01:46:12;99484.81;;;-0.40;100.00
22283;BME280;11310;51.528;21.204;2023-10-19T01:48:42;99484.00;;;-0.40;100.00
22283;BME280;11310;51.528;21.204;2023-10-19T01:51:11;99485.69;;;-0.39;100.00
22283;BME280;11310;51.528;21.204;2023-10-19T01:53:41;99486.56;;;-0.40;100.00
22283;BME280;11310;51.528;21.204;2023-10-19T01:56:11;99479.69;;;-0.40;100.00
22283;BME280;11310;51.528;21.204;2023-10-19T01:58:41;99471.91;;;-0.35;100.00
22283;BME280;11310;51.528;21.204;2023-10-19T02:01:10;99471.84;;;-0.31;100.00
22283;BME280;11310;51.528;21.204;2023-10-19T02:03:46;99460.69;;;-0.30;100.00
22283;BME280;11310;51.528;21.204;2023-10-19T02:06:15;99458.06;;;-0.27;100.00
22283;BME280;11310;51.528;21.204;2023-10-19T02:08:50;99461.50;;;-0.26;100.00
22283;BME280;11310;51.528;21.204;2023-10-19T02:11:22;99459.81;;;-0.27;100.00
22283;BME280;11310;51.528;21.204;2023-10-19T02:13:52;99470.94;;;-0.27;100.00
22283;BME280;11310;51.528;21.204;2023-10-19T02:16:21;99465.00;;;-0.33;100.00
22283;BME280;11310;51.528;21.204;2023-10-19T02:18:55;99455.59;;;-0.36;100.00
22283;BME280;11310;51.528;21.204;2023-10-19T02:21:22;99450.44;;;-0.36;100.00
22283;BME280;11310;51.528;21.204;2023-10-19T02:23:56;99457.41;;;-0.44;100.00
22283;BME280;11310;51.528;21.204;2023-10-19T02:26:26;99443.78;;;-0.52;100.00
22283;BME280;11310;51.528;21.204;2023-10-19T02:28:54;99446.38;;;-0.56;100.00
22283;BME280;11310;51.528;21.204;2023-10-19T02:31:24;99443.00;;;-0.58;100.00
22283;BME280;11310;51.528;21.204;2023-10-19T02:33:54;99436.97;;;-0.59;100.00
22283;BME280;11310;51.528;21.204;2023-10-19T02:36:30;99421.53;;;-0.59;100.00
22283;BME280;11310;51.528;21.204;2023-10-19T02:39:02;99411.22;;;-0.60;100.00
22283;BME280;11310;51.528;21.204;2023-10-19T02:41:35;99409.53;;;-0.63;100.00
22283;BME280;11310;51.528;21.204;2023-10-19T02:44:04;99409.53;;;-0.63;100.00
22283;BME280;11310;51.528;21.204;2023-10-19T02:46:37;99413.88;;;-0.63;100.00
22283;BME280;11310;51.528;21.204;2023-10-19T02:49:07;99407.84;;;-0.64;100.00
22283;BME280;11310;51.528;21.204;2023-10-19T02:51:39;99400.09;;;-0.61;100.00
22283;BME280;11310;51.528;21.204;2023-10-19T02:54:08;99401.72;;;-0.55;100.00
22283;BME280;11310;51.528;21.204;2023-10-19T02:56:46;99391.41;;;-0.52;100.00
22283;BME280;11310;51.528;21.204;2023-10-19T02:59:15;99388.78;;;-0.48;100.00
22283;BME280;11310;51.528;21.204;2023-10-19T03:01:49;99387.84;;;-0.42;100.00
22283;BME280;11310;51.528;21.204;2023-10-19T03:04:18;99384.34;;;-0.38;100.00
22283;BME280;11310;51.528;21.204;2023-10-19T03:06:48;99372.31;;;-0.36;100.00
22283;BME280;11310;51.528;21.204;2023-10-19T03:09:18;99376.59;;;-0.34;100.00
22283;BME280;11310;51.528;21.204;2023-10-19T03:11:56;99348.34;;;-0.41;100.00
22283;BME280;11310;51.528;21.204;2023-10-19T03:14:27;99357.69;;;-0.36;100.00
22283;BME280;11310;51.528;21.204;2023-10-19T03:16:57;99349.16;;;-0.38;100.00
22283;BME280;11310;51.528;21.204;2023-10-19T03:19:25;99350.03;;;-0.39;100.00
22283;BME280;11310;51.528;21.204;2023-10-19T03:21:54;99349.16;;;-0.38;100.00
22283;BME280;11310;51.528;21.204;2023-10-19T03:24:24;99347.38;;;-0.36;100.00
22283;BME280;11310;51.528;21.204;2023-10-19T03:27:04;99342.22;;;-0.33;100.00
22283;BME280;11310;51.528;21.204;2023-10-19T03:29:40;99350.81;;;-0.34;100.00
22283;BME280;11310;51.528;21.204;2023-10-19T03:32:14;99350.03;;;-0.40;100.00
22283;BME280;11310;51.528;21.204;2023-10-19T03:34:44;99356.09;;;-0.43;100.00
22283;BME280;11310;51.528;21.204;2023-10-19T03:37:26;99354.34;;;-0.42;100.00
22283;BME280;11310;51.528;21.204;2023-10-19T03:39:58;99340.69;;;-0.49;100.00
22283;BME280;11310;51.528;21.204;2023-10-19T03:42:33;99343.16;;;-0.40;100.00
22283;BME280;11310;51.528;21.204;2023-10-19T03:45:08;99327.75;;;-0.43;100.00
22283;BME280;11310;51.528;21.204;2023-10-19T03:47:40;99326.91;;;-0.45;100.00
22283;BME280;11310;51.528;21.204;2023-10-19T03:50:10;99323.53;;;-0.48;100.00
22283;BME280;11310;51.528;21.204;2023-10-19T03:52:42;99312.44;;;-0.52;100.00
22283;BME280;11310;51.528;21.204;2023-10-19T03:55:13;99309.84;;;-0.52;100.00
22283;BME280;11310;51.528;21.204;2023-10-19T03:57:45;99307.25;;;-0.50;100.00
22283;BME280;11310;51.528;21.204;2023-10-19T04:00:22;99298.59;;;-0.46;100.00
22283;BME280;11310;51.528;21.204;2023-10-19T04:02:54;99298.56;;;-0.45;100.00
22283;BME280;11310;51.528;21.204;2023-10-19T04:05:26;99297.69;;;-0.44;100.00
22283;BME280;11310;51.528;21.204;2023-10-19T04:07:56;99296.06;;;-0.48;100.00
22283;BME280;11310;51.528;21.204;2023-10-19T04:10:27;99293.56;;;-0.54;100.00
22283;BME280;11310;51.528;21.204;2023-10-19T04:13:06;99290.97;;;-0.54;100.00
22283;BME280;11310;51.528;21.204;2023-10-19T04:15:40;99284.13;;;-0.53;100.00
22283;BME280;11310;51.528;21.204;2023-10-19T04:18:09;99281.53;;;-0.52;100.00
22283;BME280;11310;51.528;21.204;2023-10-19T04:20:39;99282.31;;;-0.47;100.00
22283;BME280;11310;51.528;21.204;2023-10-19T04:23:23;99278.81;;;-0.41;100.00
22283;BME280;11310;51.528;21.204;2023-10-19T04:25:57;99275.25;;;-0.36;100.00
22283;BME280;11310;51.528;21.204;2023-10-19T04:28:30;99274.34;;;-0.32;100.00
22283;BME280;11310;51.528;21.204;2023-10-19T04:31:06;99269.19;;;-0.32;100.00
22283;BME280;11310;51.528;21.204;2023-10-19T04:33:40;99273.53;;;-0.34;100.00
22283;BME280;11310;51.528;21.204;2023-10-19T04:36:14;99259.81;;;-0.36;100.00
22283;BME280;11310;51.528;21.204;2023-10-19T04:38:43;99261.50;;;-0.35;100.00
22283;BME280;11310;51.528;21.204;2023-10-19T04:41:14;99252.94;;;-0.34;100.00
22283;BME280;11310;51.528;21.204;2023-10-19T04:43:43;99252.84;;;-0.31;100.00
22283;BME280;11310;51.528;21.204;2023-10-19T04:46:17;99253.63;;;-0.26;100.00
22283;BME280;11310;51.528;21.204;2023-10-19T04:48:47;99248.44;;;-0.21;100.00
22283;BME280;11310;51.528;21.204;2023-10-19T04:51:17;99250.91;;;-0.17;100.00
22283;BME280;11310;51.528;21.204;2023-10-19T04:53:45;99248.31;;;-0.15;100.00
22283;BME280;11310;51.528;21.204;2023-10-19T04:56:18;99243.97;;;-0.12;100.00
22283;BME280;11310;51.528;21.204;2023-10-19T04:58:46;99249.81;;;-0.01;100.00
22283;BME280;11310;51.528;21.204;2023-10-19T05:01:15;99248.00;;;0.04;100.00
22283;BME280;11310;51.528;21.204;2023-10-19T05:03:43;99239.31;;;0.12;100.00
22283;BME280;11310;51.528;21.204;2023-10-19T05:06:12;99245.19;;;0.18;100.00
22283;BME280;11310;51.528;21.204;2023-10-19T05:08:41;99240.00;;;0.19;100.00
22283;BME280;11310;51.528;21.204;2023-10-19T05:11:09;99246.78;;;0.25;100.00
22283;BME280;11310;51.528;21.204;2023-10-19T05:13:39;99236.44;;;0.27;100.00
22283;BME280;11310;51.528;21.204;2023-10-19T05:16:08;99232.97;;;0.29;100.00
22283;BME280;11310;51.528;21.204;2023-10-19T05:18:37;99241.50;;;0.32;100.00
22283;BME280;11310;51.528;21.204;2023-10-19T05:21:05;99250.06;;;0.35;100.00
22283;BME280;11310;51.528;21.204;2023-10-19T05:23:34;99243.94;;;0.38;100.00
22283;BME280;11310;51.528;21.204;2023-10-19T05:26:04;99243.91;;;0.42;100.00
22283;BME280;11310;51.528;21.204;2023-10-19T05:28:34;99235.31;;;0.41;100.00
22283;BME280;11310;51.528;21.204;2023-10-19T05:31:05;99247.25;;;0.47;100.00
22283;BME280;11310;51.528;21.204;2023-10-19T05:33:34;99235.25;;;0.44;100.00
22283;BME280;11310;51.528;21.204;2023-10-19T05:36:03;99236.03;;;0.47;100.00
22283;BME280;11310;51.528;21.204;2023-10-19T05:38:32;99236.00;;;0.51;100.00
22283;BME280;11310;51.528;21.204;2023-10-19T05:41:00;99236.75;;;0.56;100.00
22283;BME280;11310;51.528;21.204;2023-10-19T05:43:30;99225.63;;;0.54;100.00
22283;BME280;11310;51.528;21.204;2023-10-19T05:45:58;99228.03;;;0.63;100.00
22283;BME280;11310;51.528;21.204;2023-10-19T05:48:31;99239.13;;;0.68;100.00
22283;BME280;11310;51.528;21.204;2023-10-19T05:51:03;99226.13;;;0.72;100.00
22283;BME280;11310;51.528;21.204;2023-10-19T05:53:32;99226.94;;;0.76;100.00
22283;BME280;11310;51.528;21.204;2023-10-19T05:56:01;99223.38;;;0.80;100.00
22283;BME280;11310;51.528;21.204;2023-10-19T05:58:30;99226.72;;;0.85;100.00
22283;BME280;11310;51.528;21.204;2023-10-19T06:00:59;99222.34;;;0.90;100.00
22283;BME280;11310;51.528;21.204;2023-10-19T06:03:31;99227.34;;;0.97;100.00
22283;BME280;11310;51.528;21.204;2023-10-19T06:06:00;99231.59;;;1.00;100.00
22283;BME280;11310;51.528;21.204;2023-10-19T06:08:31;99226.31;;;1.04;100.00
22283;BME280;11310;51.528;21.204;2023-10-19T06:11:01;99217.63;;;1.08;100.00
22283;BME280;11310;51.528;21.204;2023-10-19T06:13:35;99220.97;;;1.12;100.00
22283;BME280;11310;51.528;21.204;2023-10-19T06:16:08;99214.13;;;1.11;100.00
22283;BME280;11310;51.528;21.204;2023-10-19T06:18:43;99210.59;;;1.15;100.00
22283;BME280;11310;51.528;21.204;2023-10-19T06:21:12;99207.00;;;1.22;100.00
22283;BME280;11310;51.528;21.204;2023-10-19T06:23:40;99194.00;;;1.25;100.00
22283;BME280;11310;51.528;21.204;2023-10-19T06:26:10;99201.69;;;1.28;100.00
22283;BME280;11310;51.528;21.204;2023-10-19T06:28:39;99194.69;;;1.33;100.00
22283;BME280;11310;51.528;21.204;2023-10-19T06:31:08;99200.63;;;1.36;100.00
22283;BME280;11310;51.528;21.204;2023-10-19T06:33:37;99189.31;;;1.42;100.00
22283;BME280;11310;51.528;21.204;2023-10-19T06:36:10;99185.69;;;1.49;100.00
22283;BME280;11310;51.528;21.204;2023-10-19T06:38:40;99180.47;;;1.52;100.00
22283;BME280;11310;51.528;21.204;2023-10-19T06:41:12;99176.78;;;1.62;100.00
22283;BME280;11310;51.528;21.204;2023-10-19T06:43:41;99173.03;;;1.73;100.00
22283;BME280;11310;51.528;21.204;2023-10-19T06:46:10;99172.84;;;1.81;100.00
22283;BME280;11310;51.528;21.204;2023-10-19T06:48:39;99169.38;;;1.83;100.00
22283;BME280;11310;51.528;21.204;2023-10-19T06:51:11;99168.34;;;1.89;100.00
22283;BME280;11310;51.528;21.204;2023-10-19T06:53:39;99161.09;;;2.03;100.00
22283;BME280;11310;51.528;21.204;2023-10-19T06:56:08;99154.88;;;2.10;100.00
22283;BME280;11310;51.528;21.204;2023-10-19T06:58:39;99145.94;;;2.21;100.00
22283;BME280;11310;51.528;21.204;2023-10-19T07:01:08;99148.13;;;2.36;100.00
22283;BME280;11310;51.528;21.204;2023-10-19T07:03:38;99152.97;;;2.48;100.00
22283;BME280;11310;51.528;21.204;2023-10-19T07:06:06;99156.13;;;2.58;100.00
22283;BME280;11310;51.528;21.204;2023-10-19T07:08:42;99156.69;;;2.69;100.00
22283;BME280;11310;51.528;21.204;2023-10-19T07:11:11;99146.88;;;2.80;100.00
22283;BME280;11310;51.528;21.204;2023-10-19T07:13:39;99148.19;;;2.93;100.00
22283;BME280;11310;51.528;21.204;2023-10-19T07:16:11;99146.13;;;3.04;100.00
22283;BME280;11310;51.528;21.204;2023-10-19T07:18:40;99139.69;;;3.17;100.00
22283;BME280;11310;51.528;21.204;2023-10-19T07:21:09;99139.31;;;3.29;100.00
22283;BME280;11310;51.528;21.204;2023-10-19T07:23:39;99134.59;;;3.41;100.00
22283;BME280;11310;51.528;21.204;2023-10-19T07:26:10;99133.34;;;3.53;100.00
22283;BME280;11310;51.528;21.204;2023-10-19T07:28:43;99125.19;;;3.65;100.00
22283;BME280;11310;51.528;21.204;2023-10-19T07:31:14;99130.03;;;3.75;100.00
22283;BME280;11310;51.528;21.204;2023-10-19T07:33:43;99122.72;;;3.86;100.00
22283;BME280;11310;51.528;21.204;2023-10-19T07:36:14;99126.69;;;3.96;100.00
22283;BME280;11310;51.528;21.204;2023-10-19T07:38:43;99117.56;;;4.11;100.00
22283;BME280;11310;51.528;21.204;2023-10-19T07:41:15;99120.56;;;4.23;100.00
22283;BME280;11310;51.528;21.204;2023-10-19T07:43:43;99106.31;;;4.35;100.00
22283;BME280;11310;51.528;21.204;2023-10-19T07:46:12;99092.09;;;4.45;100.00
22283;BME280;11310;51.528;21.204;2023-10-19T07:48:40;99094.06;;;4.61;100.00
22283;BME280;11310;51.528;21.204;2023-10-19T07:51:09;99096.31;;;4.70;100.00
22283;BME280;11310;51.528;21.204;2023-10-19T07:53:38;99093.31;;;4.81;100.00
22283;BME280;11310;51.528;21.204;2023-10-19T07:56:07;99090.28;;;4.93;100.00
22283;BME280;11310;51.528;21.204;2023-10-19T07:58:37;99085.53;;;5.02;100.00
22283;BME280;11310;51.528;21.204;2023-10-19T08:01:08;99089.41;;;5.14;100.00
22283;BME280;11310;51.528;21.204;2023-10-19T08:03:39;99085.44;;;5.27;100.00
22283;BME280;11310;51.528;21.204;2023-10-19T08:06:09;99079.75;;;5.39;100.00
22283;BME280;11310;51.528;21.204;2023-10-19T08:08:38;99076.47;;;5.55;100.00
22283;BME280;11310;51.528;21.204;2023-10-19T08:11:08;99072.25;;;5.73;100.00
22283;BME280;11310;51.528;21.204;2023-10-19T08:13:38;99074.91;;;5.93;100.00
22283;BME280;11310;51.528;21.204;2023-10-19T08:16:08;99072.06;;;6.17;100.00
22283;BME280;11310;51.528;21.204;2023-10-19T08:18:39;99077.44;;;6.33;100.00
22283;BME280;11310;51.528;21.204;2023-10-19T08:21:08;99082.66;;;6.53;100.00
22283;BME280;11310;51.528;21.204;2023-10-19T08:23:37;99061.00;;;6.88;100.00
22283;BME280;11310;51.528;21.204;2023-10-19T08:26:07;99057.94;;;7.51;100.00
22283;BME280;11310;51.528;21.204;2023-10-19T08:28:39;99053.03;;;8.13;100.00
22283;BME280;11310;51.528;21.204;2023-10-19T08:31:08;99060.09;;;8.60;97.42
22283;BME280;11310;51.528;21.204;2023-10-19T08:33:38;99047.97;;;9.06;94.67
22283;BME280;11310;51.528;21.204;2023-10-19T08:36:16;99032.44;;;9.48;93.59
22283;BME280;11310;51.528;21.204;2023-10-19T08:38:46;99027.41;;;9.74;92.05
22283;BME280;11310;51.528;21.204;2023-10-19T08:41:15;99029.09;;;10.19;90.38
22283;BME280;11310;51.528;21.204;2023-10-19T08:43:45;99016.91;;;10.74;87.37
22283;BME280;11310;51.528;21.204;2023-10-19T08:46:17;99013.41;;;11.28;84.72
22283;BME280;11310;51.528;21.204;2023-10-19T08:48:45;99018.91;;;11.50;84.11
22283;BME280;11310;51.528;21.204;2023-10-19T08:51:14;99020.97;;;11.32;84.55
22283;BME280;11310;51.528;21.204;2023-10-19T08:53:45;99010.81;;;11.14;85.79
22283;BME280;11310;51.528;21.204;2023-10-19T08:56:14;98998.06;;;11.08;86.18
22283;BME280;11310;51.528;21.204;2023-10-19T08:58:45;98994.44;;;11.37;85.74
22283;BME280;11310;51.528;21.204;2023-10-19T09:01:14;98988.22;;;11.77;84.55
22283;BME280;11310;51.528;21.204;2023-10-19T09:03:43;98982.56;;;11.56;84.91
22283;BME280;11310;51.528;21.204;2023-10-19T09:06:13;98979.34;;;11.14;86.92
22283;BME280;11310;51.528;21.204;2023-10-19T09:08:42;98971.97;;;10.92;89.54
22283;BME280;11310;51.528;21.204;2023-10-19T09:11:14;98971.53;;;10.86;90.84
22283;BME280;11310;51.528;21.204;2023-10-19T09:13:46;98965.72;;;11.34;89.73
22283;BME280;11310;51.528;21.204;2023-10-19T09:16:16;98960.69;;;11.95;87.40
22283;BME280;11310;51.528;21.204;2023-10-19T09:18:45;98955.75;;;11.91;87.29
22283;BME280;11310;51.528;21.204;2023-10-19T09:21:15;98950.44;;;11.53;88.21
22283;BME280;11310;51.528;21.204;2023-10-19T09:23:52;98947.00;;;11.26;89.79
22283;BME280;11310;51.528;21.204;2023-10-19T09:26:22;98938.16;;;11.14;91.24
22283;BME280;11310;51.528;21.204;2023-10-19T09:28:52;98936.75;;;11.35;90.89
22283;BME280;11310;51.528;21.204;2023-10-19T09:31:22;98921.00;;;11.48;89.68
22283;BME280;11310;51.528;21.204;2023-10-19T09:33:52;98927.16;;;11.86;88.44
22283;BME280;11310;51.528;21.204;2023-10-19T09:36:21;98927.41;;;11.56;88.92
22283;BME280;11310;51.528;21.204;2023-10-19T09:38:54;98922.63;;;11.11;90.98
22283;BME280;11310;51.528;21.204;2023-10-19T09:41:26;98922.47;;;10.74;92.88
22283;BME280;11310;51.528;21.204;2023-10-19T09:44:01;98916.00;;;10.39;93.73
22283;BME280;11310;51.528;21.204;2023-10-19T09:46:39;98921.56;;;10.20;95.59
22283;BME280;11310;51.528;21.204;2023-10-19T09:49:09;98911.84;;;10.08;96.11
22283;BME280;11310;51.528;21.204;2023-10-19T09:51:43;98911.34;;;10.02;96.65
22283;BME280;11310;51.528;21.204;2023-10-19T09:54:41;98907.13;;;9.99;97.22
22283;BME280;11310;51.528;21.204;2023-10-19T09:57:18;98900.22;;;9.98;97.52
22283;BME280;11310;51.528;21.204;2023-10-19T09:59:55;98893.94;;;10.01;97.57
22283;BME280;11310;51.528;21.204;2023-10-19T10:02:27;98887.75;;;10.02;96.66
22283;BME280;11310;51.528;21.204;2023-10-19T10:04:56;98874.31;;;10.08;96.62
22283;BME280;11310;51.528;21.204;2023-10-19T10:07:25;98875.63;;;10.15;96.24
22283;BME280;11310;51.528;21.204;2023-10-19T10:10:08;98870.44;;;10.27;96.06
22283;BME280;11310;51.528;21.204;2023-10-19T10:12:37;98866.16;;;10.53;95.03
22283;BME280;11310;51.528;21.204;2023-10-19T10:15:08;98857.78;;;10.87;93.41
22283;BME280;11310;51.528;21.204;2023-10-19T10:17:38;98858.59;;;11.26;92.32
22283;BME280;11310;51.528;21.204;2023-10-19T10:20:30;98851.19;;;11.70;90.51
22283;BME280;11310;51.528;21.204;2023-10-19T10:23:19;98838.53;;;12.01;88.85
22283;BME280;11310;51.528;21.204;2023-10-19T10:25:52;98836.31;;;12.07;88.11
22283;BME280;11310;51.528;21.204;2023-10-19T10:28:24;98830.31;;;12.05;88.72
22283;BME280;11310;51.528;21.204;2023-10-19T10:31:13;98835.59;;;11.93;88.19
22283;BME280;11310;51.528;21.204;2023-10-19T10:33:44;98833.34;;;11.76;89.70
22283;BME280;11310;51.528;21.204;2023-10-19T10:36:17;98845.84;;;11.59;90.35
22283;BME280;11310;51.528;21.204;2023-10-19T10:38:47;98848.09;;;11.51;90.49
22283;BME280;11310;51.528;21.204;2023-10-19T10:41:22;98844.84;;;11.48;90.48
22283;BME280;11310;51.528;21.204;2023-10-19T10:43:54;98854.63;;;11.46;91.37
22283;BME280;11310;51.528;21.204;2023-10-19T10:46:26;98845.28;;;11.42;91.95
22283;BME280;11310;51.528;21.204;2023-10-19T10:48:56;98837.59;;;11.39;92.13
22283;BME280;11310;51.528;21.204;2023-10-19T10:51:26;98831.50;;;11.38;92.21
22283;BME280;11310;51.528;21.204;2023-10-19T10:53:57;98829.81;;;11.37;92.40
22283;BME280;11310;51.528;21.204;2023-10-19T10:56:27;98820.59;;;11.32;92.52
22283;BME280;11310;51.528;21.204;2023-10-19T10:58:56;98823.09;;;11.21;92.85
22283;BME280;11310;51.528;21.204;2023-10-19T11:01:29;98825.41;;;11.13;93.26
22283;BME280;11310;51.528;21.204;2023-10-19T11:04:08;98822.25;;;11.08;93.42
22283;BME280;11310;51.528;21.204;2023-10-19T11:06:48;98812.16;;;11.02;93.61
22283;BME280;11310;51.528;21.204;2023-10-19T11:09:17;98802.53;;;11.02;94.05
22283;BME280;11310;51.528;21.204;2023-10-19T11:11:49;98798.94;;;11.03;93.60
22283;BME280;11310;51.528;21.204;2023-10-19T11:14:20;98785.94;;;11.02;93.71
22283;BME280;11310;51.528;21.204;2023-10-19T11:16:54;98780.69;;;11.02;93.81
22283;BME280;11310;51.528;21.204;2023-10-19T11:19:37;98776.91;;;11.06;93.32
22283;BME280;11310;51.528;21.204;2023-10-19T11:22:09;98780.06;;;11.11;93.15
22283;BME280;11310;51.528;21.204;2023-10-19T11:24:38;98775.66;;;11.11;93.17
22283;BME280;11310;51.528;21.204;2023-10-19T11:27:08;98769.38;;;11.14;93.31
22283;BME280;11310;51.528;21.204;2023-10-19T11:29:39;98759.59;;;11.16;93.31
22283;BME280;11310;51.528;21.204;2023-10-19T11:32:09;98754.22;;;11.17;92.89
22283;BME280;11310;51.528;21.204;2023-10-19T11:34:38;98755.81;;;11.20;93.18
22283;BME280;11310;51.528;21.204;2023-10-19T11:37:08;98757.19;;;11.25;93.04
22283;BME280;11310;51.528;21.204;2023-10-19T11:39:38;98750.88;;;11.28;93.21
22283;BME280;11310;51.528;21.204;2023-10-19T11:42:06;98743.91;;;11.27;93.17
22283;BME280;11310;51.528;21.204;2023-10-19T11:44:36;98744.16;;;11.24;92.83
22283;BME280;11310;51.528;21.204;2023-10-19T11:47:05;98743.41;;;11.22;93.55
22283;BME280;11310;51.528;21.204;2023-10-19T11:49:35;98747.94;;;11.20;93.43
22283;BME280;11310;51.528;21.204;2023-10-19T11:52:05;98745.41;;;11.18;93.51
22283;BME280;11310;51.528;21.204;2023-10-19T11:54:34;98744.56;;;11.18;94.00
22283;BME280;11310;51.528;21.204;2023-10-19T11:57:05;98741.84;;;11.19;92.95
22283;BME280;11310;51.528;21.204;2023-10-19T11:59:34;98718.09;;;11.21;93.74
22283;BME280;11310;51.528;21.204;2023-10-19T12:02:02;98722.00;;;11.28;93.74
22283;BME280;11310;51.528;21.204;2023-10-19T12:04:35;98717.25;;;11.33;93.39
22283;BME280;11310;51.528;21.204;2023-10-19T12:07:03;98716.09;;;11.37;93.30
22283;BME280;11310;51.528;21.204;2023-10-19T12:09:32;98718.50;;;11.40;92.97
22283;BME280;11310;51.528;21.204;2023-10-19T12:12:03;98718.50;;;11.40;92.59
22283;BME280;11310;51.528;21.204;2023-10-19T12:14:33;98720.31;;;11.39;92.17
22283;BME280;11310;51.528;21.204;2023-10-19T12:17:02;98720.59;;;11.35;92.46
22283;BME280;11310;51.528;21.204;2023-10-19T12:19:31;98711.38;;;11.29;92.30
22283;BME280;11310;51.528;21.204;2023-10-19T12:22:04;98714.13;;;11.28;93.33
22283;BME280;11310;51.528;21.204;2023-10-19T12:24:35;98710.97;;;11.23;93.51
22283;BME280;11310;51.528;21.204;2023-10-19T12:27:03;98705.09;;;11.19;93.31
22283;BME280;11310;51.528;21.204;2023-10-19T12:29:33;98706.88;;;11.19;93.59
22283;BME280;11310;51.528;21.204;2023-10-19T12:32:02;98703.41;;;11.18;93.41
22283;BME280;11310;51.528;21.204;2023-10-19T12:34:31;98697.31;;;11.18;93.77
22283;BME280;11310;51.528;21.204;2023-10-19T12:37:00;98701.75;;;11.17;93.67
22283;BME280;11310;51.528;21.204;2023-10-19T12:39:32;98690.38;;;11.17;94.23
22283;BME280;11310;51.528;21.204;2023-10-19T12:42:07;98692.91;;;11.18;93.66
22283;BME280;11310;51.528;21.204;2023-10-19T12:44:36;98688.50;;;11.19;94.03
22283;BME280;11310;51.528;21.204;2023-10-19T12:47:11;98681.56;;;11.18;93.95
22283;BME280;11310;51.528;21.204;2023-10-19T12:49:45;98684.31;;;11.16;94.05
22283;BME280;11310;51.528;21.204;2023-10-19T12:52:13;98680.13;;;11.14;94.46
22283;BME280;11310;51.528;21.204;2023-10-19T12:54:43;98674.22;;;11.10;94.20
22283;BME280;11310;51.528;21.204;2023-10-19T12:57:14;98671.69;;;11.09;94.87
22283;BME280;11310;51.528;21.204;2023-10-19T12:59:44;98667.41;;;11.08;95.10
22283;BME280;11310;51.528;21.204;2023-10-19T13:02:12;98669.31;;;11.06;95.76
22283;BME280;11310;51.528;21.204;2023-10-19T13:04:42;98675.38;;;11.06;95.44
22283;BME280;11310;51.528;21.204;2023-10-19T13:07:14;98672.13;;;11.03;95.84
22283;BME280;11310;51.528;21.204;2023-10-19T13:09:44;98668.78;;;11.01;96.06
22283;BME280;11310;51.528;21.204;2023-10-19T13:12:12;98663.56;;;11.01;96.28